Archival Weather

Tokyo Intl

Tokyo Intl, Japan (RJTT)

Report from: Friday, June 24, 2022 9:00 AM JST
Current time: Tuesday, August 16, 2022 3:39 PM JST

Current weather
Weather history
Weather forecast

Temperature29.0°C (84.2°F)
Heat index33.7°C (92.7°F)
Dew point24.0°C (75.2°F)
Winds 21 kts (10.8 m/s, 24.2 mph) Vrb
Wind gusts 34 kts (17.5 m/s, 39.1 mph)
Winds variableWinds variable from South-Southeast (150°) to West-Southwest (240°)
Visibility6.2 mi. (10 km)
Clouds Ceiling: Broken clouds 0 ft. (0 m)
Few clouds 2,000 ft. (610 m)
Scattered clouds 19,000 ft. (5,791 m)
Altimeter29.71 in.Hg (1006 mB)
Relative humidity75 %
Density altitude2,251 ft. (686 m)
Flight conditions Low Instrument Meteorological Conditions
Raw dataRJTT 240000Z 21021KT 150V240 9999 FEW020 SCT190 BKN/// 29/24 Q1006 TEMPO 20024G34KT RMK 2CU020 4AC190 A2971
An error has occurred. This application may no longer respond until reloaded. Reload 🗙